Las Cabezas de San Juan, Spain
Current Conditions -  °F | °C
As of 1:00 AM on Saturday 20 Dec 2014 (Local Time) from LEMO Reporting Station
Moderate Fog Moderate Fog  
Wind Chill: 45°   Ceiling: 100
Heat Index: 45°   Visibility: 0.06mi
Dew Point: 45°   Wind: 0mph
Humidity: 100%   Direction: NA
Pressure: 30.45"   Gusts: NA
Location:  36.98°N, 5.94°W
Report Text: LEMO 200000Z 00000KT 0100 R02/0500N R20/0400N FG VV001 07/07 Q1031 NOSIG
Loading
Personal Weather Stations






























Interactive Weather Map New forecast layout! Learn more

10-Day Weather Forecast

Advertisements
Track Severe Weather on mobile